createdAt,value
2023-05-19T00:00:58.662Z,2.70
2023-05-19T00:03:25.746Z,2.20
2023-05-19T00:05:53.903Z,1.83
2023-05-19T00:08:23.231Z,2.63
2023-05-19T00:10:50.281Z,2.00
2023-05-19T00:13:17.477Z,1.80
2023-05-19T00:15:44.675Z,1.70
2023-05-19T00:18:11.335Z,1.98
2023-05-19T00:20:38.043Z,1.73
2023-05-19T00:23:04.733Z,2.40
2023-05-19T00:25:32.661Z,1.73
2023-05-19T00:27:59.258Z,1.50
2023-05-19T00:30:25.838Z,1.85
2023-05-19T00:32:52.501Z,1.65
2023-05-19T00:35:19.983Z,1.70
2023-05-19T00:37:46.541Z,1.95
2023-05-19T00:40:13.441Z,1.80
2023-05-19T00:42:41.783Z,1.67
2023-05-19T00:45:09.016Z,2.08
2023-05-19T00:47:35.768Z,2.00
2023-05-19T00:50:06.008Z,1.75
2023-05-19T00:52:32.672Z,1.70
2023-05-19T00:54:59.781Z,2.08
2023-05-19T00:57:26.355Z,1.70
2023-05-19T00:59:54.529Z,1.98
2023-05-19T01:02:21.275Z,1.40
2023-05-19T01:04:48.057Z,1.73
2023-05-19T01:07:15.155Z,2.25
2023-05-19T01:09:41.905Z,1.70
2023-05-19T01:12:08.966Z,1.63
2023-05-19T01:14:35.733Z,1.83
2023-05-19T01:17:08.136Z,2.03
2023-05-19T01:19:55.896Z,1.80
2023-05-19T01:22:38.672Z,2.22
2023-05-19T01:25:36.684Z,1.80
2023-05-19T01:28:26.331Z,1.45
2023-05-19T01:30:55.963Z,1.70
2023-05-19T01:33:24.126Z,1.58
2023-05-19T01:35:51.475Z,1.60
2023-05-19T01:38:20.760Z,1.83
2023-05-19T01:40:49.354Z,1.65
2023-05-19T01:43:18.533Z,1.98
2023-05-19T01:45:46.056Z,1.58
2023-05-19T01:48:14.816Z,1.48
2023-05-19T01:50:42.194Z,1.98
2023-05-19T01:53:08.809Z,1.83
2023-05-19T01:55:36.408Z,1.90
2023-05-19T01:58:10.178Z,2.13
2023-05-19T02:00:51.343Z,1.95
2023-05-19T02:03:41.446Z,2.20
2023-05-19T02:06:22.666Z,2.35
2023-05-19T02:08:57.148Z,2.78
2023-05-19T02:11:30.604Z,1.63
2023-05-19T02:16:28.583Z,1.80
2023-05-19T02:18:56.797Z,2.33
2023-05-19T02:21:23.494Z,2.38
2023-05-19T02:23:50.596Z,1.83
2023-05-19T02:26:17.228Z,2.03
2023-05-19T02:28:43.781Z,2.08
2023-05-19T02:31:10.372Z,2.30
2023-05-19T02:33:37.238Z,1.90
2023-05-19T02:36:06.156Z,2.15
2023-05-19T02:38:32.751Z,2.00
2023-05-19T02:40:59.341Z,1.90
2023-05-19T02:43:25.912Z,2.03
2023-05-19T02:45:52.598Z,2.10
2023-05-19T02:48:19.325Z,2.08
2023-05-19T02:50:45.902Z,2.00
2023-05-19T02:53:13.790Z,1.65
2023-05-19T02:55:40.377Z,2.72
2023-05-19T02:58:06.959Z,1.75
2023-05-19T03:00:33.750Z,2.53
2023-05-19T03:03:00.572Z,2.40
2023-05-19T03:05:27.246Z,2.88
2023-05-19T03:07:53.824Z,2.40
2023-05-19T03:10:21.808Z,2.13
2023-05-19T03:12:48.377Z,2.38
2023-05-19T03:15:14.985Z,2.40
2023-05-19T03:17:41.716Z,2.47
2023-05-19T03:20:09.329Z,2.22
2023-05-19T03:22:35.870Z,2.42
2023-05-19T03:25:02.517Z,3.13
2023-05-19T03:27:30.652Z,2.47
2023-05-19T03:29:57.205Z,2.65
2023-05-19T03:32:24.072Z,2.70
2023-05-19T03:34:50.755Z,2.67
2023-05-19T03:37:17.438Z,2.25
2023-05-19T03:39:44.092Z,2.75
2023-05-19T03:42:10.710Z,2.63
2023-05-19T03:44:38.680Z,2.92
2023-05-19T03:47:05.875Z,2.95
2023-05-19T03:49:32.507Z,2.65
2023-05-19T03:51:59.120Z,3.28
2023-05-19T03:54:25.789Z,3.15
2023-05-19T03:56:52.408Z,2.78
2023-05-19T03:59:19.002Z,2.95
2023-05-19T04:01:47.155Z,2.90
2023-05-19T04:04:13.776Z,2.60
2023-05-19T04:06:40.370Z,2.38
2023-05-19T04:09:12.002Z,3.40
2023-05-19T04:11:38.582Z,3.65
2023-05-19T04:14:05.195Z,3.17
2023-05-19T04:16:32.271Z,2.53
2023-05-19T04:19:00.525Z,2.63
2023-05-19T04:21:27.524Z,2.95
2023-05-19T04:23:54.134Z,3.42
2023-05-19T04:26:20.873Z,2.47
2023-05-19T04:28:47.813Z,2.42
2023-05-19T04:31:14.495Z,2.90
2023-05-19T04:33:41.369Z,2.03
2023-05-19T04:36:09.862Z,2.60
2023-05-19T04:38:36.796Z,2.10
2023-05-19T04:41:03.444Z,1.95
2023-05-19T04:43:30.095Z,2.38
2023-05-19T04:45:56.960Z,2.67
2023-05-19T04:48:23.598Z,2.47
2023-05-19T04:50:50.394Z,2.53
2023-05-19T04:53:18.371Z,2.42
2023-05-19T04:55:44.964Z,2.70
2023-05-19T04:58:11.525Z,2.88
2023-05-19T05:00:38.061Z,2.78
2023-05-19T05:03:04.721Z,2.00
2023-05-19T05:05:31.517Z,2.15
2023-05-19T05:07:58.628Z,2.50
2023-05-19T05:10:26.718Z,3.40
2023-05-19T05:12:53.889Z,2.40
2023-05-19T05:15:22.143Z,2.25
2023-05-19T05:17:49.302Z,2.30
2023-05-19T05:20:16.790Z,1.98
2023-05-19T05:22:43.882Z,2.40
2023-05-19T05:25:12.207Z,2.15
2023-05-19T05:27:40.481Z,2.13
2023-05-19T05:30:08.347Z,2.88
2023-05-19T05:32:35.450Z,1.85
2023-05-19T05:35:02.280Z,2.17
2023-05-19T05:37:30.508Z,2.28
2023-05-19T05:39:57.171Z,1.63
2023-05-19T05:42:23.809Z,2.42
2023-05-19T05:44:52.017Z,2.38
2023-05-19T05:47:19.187Z,2.28
2023-05-19T05:49:46.440Z,2.83
2023-05-19T05:52:13.133Z,2.40
2023-05-19T05:54:40.476Z,2.88
2023-05-19T05:57:08.160Z,2.45
2023-05-19T05:59:34.734Z,2.15
2023-05-19T06:02:04.102Z,2.67
2023-05-19T06:04:30.731Z,2.55
2023-05-19T06:06:57.328Z,2.65
2023-05-19T06:09:24.544Z,2.50
2023-05-19T06:11:51.278Z,2.90
2023-05-19T06:14:17.876Z,2.22
2023-05-19T06:16:44.432Z,2.20
2023-05-19T06:19:12.717Z,2.60
2023-05-19T06:21:39.364Z,2.17
2023-05-19T06:24:06.560Z,3.05
2023-05-19T06:26:33.271Z,2.45
2023-05-19T06:28:59.867Z,2.35
2023-05-19T06:31:29.067Z,2.30
2023-05-19T06:33:55.699Z,2.42
2023-05-19T06:36:23.781Z,2.47
2023-05-19T06:38:50.366Z,2.72
2023-05-19T06:41:17.018Z,2.28
2023-05-19T06:43:43.659Z,2.35
2023-05-19T06:46:10.225Z,2.80
2023-05-19T06:48:36.795Z,2.88
2023-05-19T06:51:03.978Z,2.65
2023-05-19T06:53:31.897Z,2.80
2023-05-19T06:55:59.793Z,2.45
2023-05-19T06:58:27.107Z,2.70
2023-05-19T07:00:53.919Z,2.38
2023-05-19T07:03:20.686Z,2.70
2023-05-19T07:05:50.227Z,2.30
2023-05-19T07:08:16.777Z,2.35
2023-05-19T07:10:44.701Z,2.72
2023-05-19T07:13:11.313Z,2.53
2023-05-19T07:15:37.906Z,2.63
2023-05-19T07:18:04.752Z,2.40
2023-05-19T07:20:31.629Z,2.45
2023-05-19T07:22:58.559Z,2.50
2023-05-19T07:25:25.202Z,2.97
2023-05-19T07:27:53.204Z,2.67
2023-05-19T07:30:20.315Z,2.40
2023-05-19T07:32:46.980Z,2.58
2023-05-19T07:35:14.020Z,2.10
2023-05-19T07:37:40.635Z,2.50
2023-05-19T07:40:08.370Z,2.25
2023-05-19T07:42:35.091Z,1.90
2023-05-19T07:45:03.273Z,1.90
2023-05-19T07:47:30.750Z,2.15
2023-05-19T07:49:57.367Z,2.22
2023-05-19T07:52:23.976Z,2.50
2023-05-19T07:54:50.615Z,2.20
2023-05-19T07:57:17.283Z,1.73
2023-05-19T07:59:43.987Z,2.03
2023-05-19T08:02:12.583Z,2.20
2023-05-19T08:04:39.484Z,1.95
2023-05-19T08:07:06.147Z,2.35
2023-05-19T08:09:32.814Z,1.80
2023-05-19T08:11:59.460Z,2.00
2023-05-19T08:14:26.070Z,2.10
2023-05-19T08:16:52.672Z,2.38
2023-05-19T08:19:20.817Z,2.28
2023-05-19T08:21:48.810Z,1.88
2023-05-19T08:24:16.543Z,1.40
2023-05-19T08:26:44.080Z,1.55
2023-05-19T08:29:10.732Z,1.48
2023-05-19T08:31:37.447Z,1.73
2023-05-19T08:34:04.084Z,1.70
2023-05-19T08:36:32.029Z,1.92
2023-05-19T08:38:58.593Z,1.52
2023-05-19T08:41:25.166Z,2.13
2023-05-19T08:43:51.873Z,1.45
2023-05-19T08:46:21.503Z,1.95
2023-05-19T08:48:48.468Z,2.10
2023-05-19T08:51:32.504Z,1.55
2023-05-19T08:54:14.507Z,1.67
2023-05-19T08:56:43.470Z,1.75
2023-05-19T08:59:11.302Z,1.88
2023-05-19T09:01:39.087Z,1.70
2023-05-19T09:04:06.285Z,1.77
2023-05-19T09:06:33.263Z,2.05
2023-05-19T09:09:01.574Z,2.05
2023-05-19T09:11:28.243Z,2.00
2023-05-19T09:13:54.966Z,2.03
2023-05-19T09:16:21.964Z,1.95
2023-05-19T09:18:55.224Z,1.80
2023-05-19T09:21:27.826Z,1.30
2023-05-19T09:23:54.457Z,1.57
2023-05-19T09:26:22.580Z,1.75
2023-05-19T09:28:49.441Z,1.42
2023-05-19T09:31:16.097Z,1.52
2023-05-19T09:33:45.587Z,1.08
2023-05-19T09:36:12.509Z,1.30
2023-05-19T09:38:39.225Z,1.20
2023-05-19T09:41:07.213Z,1.10
2023-05-19T09:43:35.750Z,1.10
2023-05-19T09:46:04.656Z,1.30
2023-05-19T09:48:31.471Z,2.38
2023-05-19T09:51:00.169Z,1.70
2023-05-19T09:53:29.264Z,1.55
2023-05-19T09:55:56.758Z,1.20
2023-05-19T09:58:23.693Z,1.60
2023-05-19T10:00:53.302Z,1.40
2023-05-19T10:03:20.744Z,2.15
2023-05-19T10:05:48.535Z,1.20
2023-05-19T10:08:17.216Z,1.50
2023-05-19T10:10:45.991Z,1.13
2023-05-19T10:13:12.909Z,1.33
2023-05-19T10:15:57.204Z,1.33
2023-05-19T10:18:27.543Z,1.10
2023-05-19T10:20:54.949Z,1.20
2023-05-19T10:23:21.655Z,1.15
2023-05-19T10:25:49.444Z,0.93
2023-05-19T10:28:18.457Z,1.40
2023-05-19T10:30:48.834Z,1.10
2023-05-19T10:33:17.640Z,1.35
2023-05-19T10:36:19.862Z,1.10
2023-05-19T10:38:53.286Z,0.98
2023-05-19T10:41:34.706Z,1.10
2023-05-19T10:44:09.485Z,1.05
2023-05-19T10:46:36.303Z,1.17
2023-05-19T10:49:02.980Z,1.20
2023-05-19T10:51:32.443Z,1.63
2023-05-19T10:54:01.860Z,1.00
2023-05-19T10:56:29.498Z,1.10
2023-05-19T10:58:56.147Z,1.00
2023-05-19T11:01:22.790Z,1.38
2023-05-19T11:03:50.912Z,1.27
2023-05-19T11:06:25.067Z,1.13
2023-05-19T11:08:58.184Z,1.25
2023-05-19T11:11:24.816Z,1.10
2023-05-19T11:13:52.484Z,1.40
2023-05-19T11:16:19.988Z,1.52
2023-05-19T11:18:48.873Z,1.02
2023-05-19T11:21:15.550Z,1.30
2023-05-19T11:23:42.323Z,1.10
2023-05-19T11:26:10.312Z,1.00
2023-05-19T11:28:37.194Z,1.10
2023-05-19T11:31:05.452Z,1.30
2023-05-19T11:33:32.427Z,1.67
2023-05-19T11:35:59.249Z,1.23
2023-05-19T11:38:26.538Z,1.45
2023-05-19T11:40:54.089Z,1.70
2023-05-19T11:43:23.939Z,1.30
2023-05-19T11:45:50.697Z,1.02
2023-05-19T11:48:21.032Z,1.02
2023-05-19T11:50:47.799Z,1.30
2023-05-19T11:53:15.508Z,1.00
2023-05-19T11:55:42.771Z,1.40
2023-05-19T11:58:09.367Z,1.00
2023-05-19T12:00:40.202Z,1.33
2023-05-19T12:03:08.873Z,1.13
2023-05-19T12:05:41.838Z,1.05
2023-05-19T12:08:09.852Z,1.30
2023-05-19T12:10:38.418Z,1.10
2023-05-19T12:13:06.105Z,1.60
2023-05-19T12:15:32.926Z,1.10
2023-05-19T12:18:02.487Z,1.00
2023-05-19T12:20:30.559Z,1.10
2023-05-19T12:22:57.785Z,1.73
2023-05-19T12:25:24.585Z,1.35
2023-05-19T12:27:51.491Z,1.02
2023-05-19T12:30:18.477Z,1.30
2023-05-19T12:32:46.489Z,1.30
2023-05-19T12:35:15.686Z,1.25
2023-05-19T12:37:42.729Z,1.40
2023-05-19T12:40:14.851Z,1.30
2023-05-19T12:42:44.640Z,1.30
2023-05-19T12:45:11.228Z,1.15
2023-05-19T12:47:38.007Z,1.20
2023-05-19T12:50:06.788Z,1.33
2023-05-19T12:52:42.480Z,1.27
2023-05-19T12:55:09.970Z,1.10
2023-05-19T12:57:38.911Z,1.35
2023-05-19T13:00:07.751Z,1.20
2023-05-19T13:02:35.381Z,1.23
2023-05-19T13:05:02.410Z,1.65
2023-05-19T13:07:29.000Z,1.38
2023-05-19T13:09:57.380Z,1.73
2023-05-19T13:12:24.370Z,1.00
2023-05-19T13:14:51.645Z,1.25
2023-05-19T13:17:19.591Z,1.20
2023-05-19T13:19:46.325Z,1.52
2023-05-19T13:22:12.933Z,1.23
2023-05-19T13:24:39.530Z,1.20
2023-05-19T13:27:07.601Z,1.70
2023-05-19T13:29:34.164Z,1.00
2023-05-19T13:32:01.461Z,1.00
2023-05-19T13:34:28.294Z,1.20
2023-05-19T13:36:54.949Z,1.30
2023-05-19T13:39:21.611Z,1.40
2023-05-19T13:41:48.205Z,1.30
2023-05-19T13:44:16.262Z,1.23
2023-05-19T13:46:46.037Z,1.35
2023-05-19T13:49:13.509Z,1.40
2023-05-19T13:51:42.924Z,1.40
2023-05-19T13:54:09.538Z,1.35
2023-05-19T13:56:36.558Z,1.15
2023-05-19T13:59:04.056Z,1.23
2023-05-19T14:01:32.224Z,1.20
2023-05-19T14:03:58.922Z,1.30
2023-05-19T14:06:25.671Z,1.40
2023-05-19T14:08:52.417Z,1.40
2023-05-19T14:11:19.814Z,1.40
2023-05-19T14:13:50.035Z,1.52
2023-05-19T14:16:18.379Z,1.38
2023-05-19T14:18:46.417Z,1.23
2023-05-19T14:21:13.092Z,1.40
2023-05-19T14:23:39.914Z,1.30
2023-05-19T14:26:06.749Z,1.42
2023-05-19T14:28:33.348Z,1.50
2023-05-19T14:31:00.244Z,1.58
2023-05-19T14:33:26.993Z,1.35
2023-05-19T14:35:55.083Z,1.40
2023-05-19T14:38:21.841Z,1.50
2023-05-19T14:40:48.474Z,1.70
2023-05-19T14:43:15.108Z,1.40
2023-05-19T14:45:41.779Z,1.50
2023-05-19T14:48:08.399Z,1.58
2023-05-19T14:50:35.230Z,1.42
2023-05-19T14:53:03.269Z,1.42
2023-05-19T14:55:29.833Z,1.27
2023-05-19T14:57:56.572Z,1.92
2023-05-19T15:00:23.363Z,1.90
2023-05-19T15:02:50.009Z,1.35
2023-05-19T15:05:16.909Z,1.45
2023-05-19T15:07:43.501Z,1.65
2023-05-19T15:10:15.525Z,1.30
2023-05-19T15:12:42.284Z,1.40
2023-05-19T15:15:09.747Z,1.80
2023-05-19T15:17:36.750Z,1.70
2023-05-19T15:20:03.832Z,1.67
2023-05-19T15:22:30.444Z,1.27
2023-05-19T15:24:57.060Z,1.50
2023-05-19T15:27:25.147Z,1.50
2023-05-19T15:29:51.704Z,1.60
2023-05-19T15:32:18.355Z,1.48
2023-05-19T15:34:44.937Z,1.38
2023-05-19T15:37:11.510Z,1.45
2023-05-19T15:39:38.328Z,1.17
2023-05-19T15:42:05.204Z,1.63
2023-05-19T15:44:33.150Z,1.50
2023-05-19T15:46:59.973Z,1.73
2023-05-19T15:49:26.509Z,1.55
2023-05-19T15:51:53.096Z,1.13
2023-05-19T15:54:19.807Z,1.88
2023-05-19T15:56:46.435Z,1.50
2023-05-19T15:59:13.075Z,1.60
2023-05-19T16:01:41.386Z,1.50
2023-05-19T16:04:08.040Z,1.55
2023-05-19T16:06:34.651Z,1.45
2023-05-19T16:09:01.309Z,1.50
2023-05-19T16:11:28.003Z,1.50
2023-05-19T16:13:54.614Z,1.77
2023-05-19T16:16:21.282Z,1.70
2023-05-19T16:18:49.287Z,1.58
2023-05-19T16:21:15.910Z,2.28
2023-05-19T16:23:42.843Z,1.63
2023-05-19T16:26:09.393Z,1.50
2023-05-19T16:28:35.997Z,1.40
2023-05-19T16:31:02.630Z,1.60
2023-05-19T16:33:29.388Z,1.67
2023-05-19T16:35:58.002Z,1.63
2023-05-19T16:38:24.733Z,1.80
2023-05-19T16:40:51.330Z,1.58
2023-05-19T16:43:17.897Z,1.48
2023-05-19T16:45:44.620Z,1.40
2023-05-19T16:48:11.302Z,1.63
2023-05-19T16:50:38.156Z,1.45
2023-05-19T16:53:06.300Z,1.83
2023-05-19T16:55:32.852Z,1.45
2023-05-19T16:57:59.639Z,1.77
2023-05-19T17:00:26.250Z,1.50
2023-05-19T17:02:53.138Z,1.63
2023-05-19T17:05:19.823Z,1.70
2023-05-19T17:07:46.585Z,1.48
2023-05-19T17:10:14.524Z,1.77
2023-05-19T17:12:41.182Z,1.92
2023-05-19T17:15:08.458Z,1.73
2023-05-19T17:17:35.093Z,1.58
2023-05-19T17:20:01.791Z,1.90
2023-05-19T17:22:30.125Z,1.50
2023-05-19T17:24:57.008Z,1.33
2023-05-19T17:27:25.199Z,1.38
2023-05-19T17:29:51.802Z,2.10
2023-05-19T17:32:18.512Z,1.65
2023-05-19T17:34:45.227Z,1.90
2023-05-19T17:37:11.837Z,1.63
2023-05-19T17:39:38.504Z,1.88
2023-05-19T17:42:05.326Z,1.83
2023-05-19T17:44:33.319Z,1.33
2023-05-19T17:46:59.957Z,1.70
2023-05-19T17:49:26.750Z,1.58
2023-05-19T17:51:53.841Z,1.70
2023-05-19T17:54:20.918Z,1.40
2023-05-19T17:56:50.008Z,1.60
2023-05-19T17:59:17.041Z,1.45
2023-05-19T18:01:45.793Z,1.73
2023-05-19T18:04:14.625Z,1.63
2023-05-19T18:06:44.959Z,1.45
2023-05-19T18:09:13.682Z,1.92
2023-05-19T18:11:40.296Z,2.28
2023-05-19T18:14:06.979Z,1.80
2023-05-19T18:16:33.696Z,1.90
2023-05-19T18:19:02.906Z,1.80
2023-05-19T18:21:29.576Z,2.25
2023-05-19T18:23:56.103Z,1.95
2023-05-19T18:26:22.824Z,1.48
2023-05-19T18:28:49.406Z,1.90
2023-05-19T18:31:16.011Z,2.25
2023-05-19T18:33:43.706Z,2.03
2023-05-19T18:36:11.735Z,2.00
2023-05-19T18:38:38.315Z,1.98
2023-05-19T18:41:06.643Z,1.73
2023-05-19T18:43:33.380Z,2.17
2023-05-19T18:46:00.065Z,2.25
2023-05-19T18:48:26.819Z,2.22
2023-05-19T18:50:53.448Z,2.00
2023-05-19T18:53:22.138Z,2.60
2023-05-19T18:55:48.749Z,1.67
2023-05-19T18:58:15.349Z,2.25
2023-05-19T19:00:42.012Z,2.03
2023-05-19T19:03:08.619Z,2.13
2023-05-19T19:05:35.261Z,1.92
2023-05-19T19:08:01.907Z,2.47
2023-05-19T19:10:29.901Z,2.65
2023-05-19T19:12:56.586Z,2.10
2023-05-19T19:15:23.192Z,3.00
2023-05-19T19:17:49.835Z,2.80
2023-05-19T19:20:16.643Z,2.17
2023-05-19T19:22:43.248Z,2.15
2023-05-19T19:25:10.015Z,2.20
2023-05-19T19:27:38.290Z,2.13
2023-05-19T19:30:06.101Z,2.13
2023-05-19T19:32:32.757Z,2.83
2023-05-19T19:34:59.409Z,2.53
2023-05-19T19:37:26.044Z,2.33
2023-05-19T19:39:52.732Z,2.30
2023-05-19T19:42:19.308Z,1.88
2023-05-19T19:44:47.328Z,2.05
2023-05-19T19:47:13.929Z,1.90
2023-05-19T19:49:40.501Z,2.03
2023-05-19T19:52:07.206Z,2.22
2023-05-19T19:54:33.808Z,2.08
2023-05-19T19:57:00.417Z,2.00
2023-05-19T19:59:27.113Z,2.55
2023-05-19T20:01:55.115Z,2.50
2023-05-19T20:04:21.825Z,1.98
2023-05-19T20:06:48.565Z,2.85
2023-05-19T20:09:15.194Z,2.42
2023-05-19T20:11:41.880Z,2.45
2023-05-19T20:14:08.427Z,2.78
2023-05-19T20:16:35.320Z,3.08
2023-05-19T20:19:03.374Z,3.20
2023-05-19T20:21:29.969Z,2.88
2023-05-19T20:23:56.522Z,3.70
2023-05-19T20:26:23.118Z,3.55
2023-05-19T20:28:49.712Z,4.95
2023-05-19T20:31:16.263Z,4.50
2023-05-19T20:33:42.926Z,2.38
2023-05-19T20:36:10.913Z,2.55
2023-05-19T20:38:37.549Z,2.17
2023-05-19T20:41:04.157Z,2.40
2023-05-19T20:43:31.274Z,2.30
2023-05-19T20:45:57.880Z,3.20
2023-05-19T20:48:24.528Z,2.47
2023-05-19T20:50:51.171Z,2.70
2023-05-19T20:53:19.807Z,3.22
2023-05-19T20:55:46.529Z,2.58
2023-05-19T20:58:13.737Z,2.45
2023-05-19T21:00:40.383Z,2.40
2023-05-19T21:03:07.245Z,2.58
2023-05-19T21:05:34.055Z,2.92
2023-05-19T21:08:00.859Z,3.35
2023-05-19T21:10:28.925Z,3.45
2023-05-19T21:12:55.565Z,6.13
2023-05-19T21:15:22.335Z,10.10
2023-05-19T21:17:49.227Z,7.32
2023-05-19T21:20:15.865Z,3.85
2023-05-19T21:22:42.510Z,3.72
2023-05-19T21:25:09.405Z,2.67
2023-05-19T21:27:37.430Z,2.47
2023-05-19T21:30:04.447Z,2.65
2023-05-19T21:32:31.191Z,2.55
2023-05-19T21:34:57.876Z,2.42
2023-05-19T21:37:24.472Z,2.20
2023-05-19T21:39:51.104Z,2.90
2023-05-19T21:42:17.742Z,2.60
2023-05-19T21:44:45.684Z,2.40
2023-05-19T21:47:12.260Z,2.13
2023-05-19T21:49:38.867Z,2.80
2023-05-19T21:52:06.449Z,2.70
2023-05-19T21:54:33.056Z,2.25
2023-05-19T21:57:00.078Z,2.20
2023-05-19T21:59:26.669Z,2.28
2023-05-19T22:01:54.661Z,2.03
2023-05-19T22:04:22.451Z,2.60
2023-05-19T22:06:49.119Z,2.50
2023-05-19T22:09:15.777Z,2.30
2023-05-19T22:11:42.405Z,2.65
2023-05-19T22:14:09.009Z,2.17
2023-05-19T22:16:35.665Z,2.50
2023-05-19T22:19:03.755Z,2.72
2023-05-19T22:21:30.346Z,2.65
2023-05-19T22:23:56.942Z,3.65
2023-05-19T22:26:23.507Z,2.72
2023-05-19T22:28:50.177Z,2.75
2023-05-19T22:31:16.854Z,2.22
2023-05-19T22:33:43.536Z,2.70
2023-05-19T22:36:11.451Z,3.15
2023-05-19T22:38:38.011Z,2.63
2023-05-19T22:41:04.672Z,2.72
2023-05-19T22:43:31.367Z,2.80
2023-05-19T22:45:57.982Z,2.47
2023-05-19T22:48:24.719Z,2.67
2023-05-19T22:50:51.376Z,2.38
2023-05-19T22:53:19.273Z,2.60
2023-05-19T22:55:45.923Z,2.92
2023-05-19T22:58:12.568Z,2.58
2023-05-19T23:00:39.139Z,2.60
2023-05-19T23:03:05.823Z,3.08
2023-05-19T23:05:32.653Z,2.40
2023-05-19T23:07:59.350Z,3.22
2023-05-19T23:10:27.339Z,2.80
2023-05-19T23:12:53.932Z,2.63
2023-05-19T23:15:20.493Z,2.63
2023-05-19T23:17:47.170Z,2.88
2023-05-19T23:20:13.750Z,3.15
2023-05-19T23:22:40.339Z,2.92
2023-05-19T23:25:07.739Z,2.70
2023-05-19T23:27:36.360Z,2.80
2023-05-19T23:30:03.338Z,2.80
2023-05-19T23:32:30.025Z,2.75
2023-05-19T23:34:56.759Z,2.50
2023-05-19T23:37:23.291Z,2.53
2023-05-19T23:39:49.901Z,2.85
2023-05-19T23:42:16.583Z,2.40
2023-05-19T23:44:44.579Z,2.97
2023-05-19T23:47:11.191Z,2.47
2023-05-19T23:49:37.794Z,3.00
2023-05-19T23:52:04.664Z,3.00
2023-05-19T23:54:31.285Z,3.20
2023-05-19T23:56:57.914Z,2.80
2023-05-19T23:59:24.487Z,2.80
